Time;durP1;ratioP1;P1;durP2;ratioP2;P2;SDS_P1;SDS_P2;PMS_P1;PMS_P2;Temp;Humidity;BMP_temperature;BMP_pressure;BME280_temperature;BME280_humidity;BME280_pressure;Samples;Min_cycle;Max_cycle;Signal;HPM_P1;HPM_P2
2021/03/30 00:04:08;;;;;;;28.60;16.50;;;;;8.50;102546.00;;;;9673889;30;20318;-76
2021/03/30 00:09:10;;;;;;;31.73;17.43;;;;;8.40;102551.00;;;;9688658;30;20759;-76
2021/03/30 00:14:11;;;;;;;30.13;17.47;;;;;8.20;102553.00;;;;9688012;30;20226;-76
2021/03/30 00:19:13;;;;;;;28.20;16.67;;;;;8.00;102550.00;;;;9701610;30;20623;-76
2021/03/30 00:24:14;;;;;;;25.33;15.10;;;;;7.70;102546.00;;;;9687398;30;20235;-76
2021/03/30 00:29:15;;;;;;;31.00;16.47;;;;;7.60;102544.00;;;;9701602;30;20208;-76
2021/03/30 00:34:16;;;;;;;31.17;17.10;;;;;7.50;102542.00;;;;9701616;30;20577;-76
2021/03/30 00:39:18;;;;;;;29.27;15.77;;;;;7.30;102531.00;;;;9701233;30;20246;-76
2021/03/30 00:44:19;;;;;;;27.73;16.33;;;;;7.20;102533.00;;;;9701454;30;20261;-76
2021/03/30 00:49:21;;;;;;;30.50;16.87;;;;;7.20;102541.00;;;;9687443;30;20203;-76
2021/03/30 00:54:22;;;;;;;25.93;16.33;;;;;7.10;102532.00;;;;9694483;30;20275;-76
2021/03/30 00:59:45;;;;;;;26.60;15.87;;;;;7.00;102534.00;;;;9691391;30;20836;-77
2021/03/30 01:04:46;;;;;;;28.90;15.90;;;;;6.80;102543.00;;;;9694013;30;20228;-77
2021/03/30 01:10:11;;;;;;;29.43;15.97;;;;;6.70;102538.00;;;;9678525;30;20243;-77
2021/03/30 01:15:18;;;;;;;26.47;15.97;;;;;6.60;102538.00;;;;9692407;30;20212;-77
2021/03/30 01:21:03;;;;;;;27.83;15.93;;;;;6.50;102533.00;;;;9678308;30;20208;-77
2021/03/30 01:26:30;;;;;;;25.20;15.50;;;;;6.50;102535.00;;;;9663466;30;20915;-77
2021/03/30 01:31:33;;;;;;;28.47;16.20;;;;;6.40;102538.00;;;;9692007;30;20215;-77
2021/03/30 01:36:38;;;;;;;28.10;15.00;;;;;6.30;102542.00;;;;9693395;30;20217;-77
2021/03/30 01:41:44;;;;;;;27.43;16.17;;;;;6.30;102526.00;;;;9706093;30;20876;-77
2021/03/30 01:46:47;;;;;;;28.03;15.77;;;;;6.20;102526.00;;;;9691657;30;20724;-77
2021/03/30 01:51:50;;;;;;;31.27;15.97;;;;;6.10;102526.00;;;;9691802;30;20216;-77
2021/03/30 01:56:54;;;;;;;26.57;15.80;;;;;6.00;102518.00;;;;9677787;30;20819;-77
2021/03/30 02:01:55;;;;;;;29.37;15.97;;;;;5.90;102516.00;;;;9676059;30;20310;-77
2021/03/30 02:06:57;;;;;;;22.43;14.60;;;;;5.80;102516.00;;;;9676750;30;20263;-77
2021/03/30 02:12:11;;;;;;;27.67;15.77;;;;;5.70;102520.00;;;;9705300;30;20211;-77
2021/03/30 02:17:25;;;;;;;30.83;16.47;;;;;5.70;102517.00;;;;9669601;30;20669;-77
2021/03/30 02:22:47;;;;;;;25.07;14.70;;;;;5.60;102506.00;;;;9656041;30;20269;-77
2021/03/30 02:27:53;;;;;;;27.67;16.07;;;;;5.40;102496.00;;;;9640637;30;20323;-77
2021/03/30 02:32:55;;;;;;;28.20;16.63;;;;;5.30;102495.00;;;;9640526;30;20216;-77
2021/03/30 02:37:57;;;;;;;27.33;15.93;;;;;5.20;102491.00;;;;9668589;30;20629;-77
2021/03/30 02:42:59;;;;;;;25.53;15.50;;;;;5.10;102504.00;;;;9674064;30;20237;-77
2021/03/30 02:48:05;;;;;;;25.63;15.47;;;;;5.10;102494.00;;;;9703592;30;20218;-77
2021/03/30 02:53:07;;;;;;;27.27;15.73;;;;;5.00;102496.00;;;;9675346;30;20674;-77
2021/03/30 02:58:09;;;;;;;27.57;15.23;;;;;4.90;102493.00;;;;9674551;30;20251;-77
2021/03/30 03:03:12;;;;;;;22.53;13.80;;;;;4.80;102494.00;;;;9702968;30;20224;-76
2021/03/30 03:08:15;;;;;;;25.37;15.33;;;;;4.70;102500.00;;;;9675003;30;20208;-76
2021/03/30 03:13:17;;;;;;;30.03;15.20;;;;;4.70;102499.00;;;;9688601;30;20896;-76
2021/03/30 03:18:19;;;;;;;28.77;16.13;;;;;4.60;102494.00;;;;9659938;30;20679;-76
2021/03/30 03:23:22;;;;;;;32.63;15.97;;;;;4.60;102496.00;;;;9689101;30;20231;-76
2021/03/30 03:28:24;;;;;;;32.73;16.90;;;;;4.70;102497.00;;;;9660056;30;20940;-76
2021/03/30 03:33:27;;;;;;;28.73;16.20;;;;;4.70;102509.00;;;;9688832;30;20742;-76
2021/03/30 03:38:29;;;;;;;31.40;16.70;;;;;4.70;102500.00;;;;9688037;30;20211;-76
2021/03/30 03:43:30;;;;;;;31.90;16.67;;;;;4.80;102498.00;;;;9688044;30;20302;-76
2021/03/30 03:48:32;;;;;;;31.70;15.90;;;;;4.90;102499.00;;;;9689072;30;20265;-76
2021/03/30 03:53:35;;;;;;;28.90;15.33;;;;;5.00;102510.00;;;;9673717;30;20230;-76
2021/03/30 03:58:40;;;;;;;28.63;14.93;;;;;4.90;102493.00;;;;9689315;30;20207;-76
2021/03/30 04:03:48;;;;;;;28.83;16.03;;;;;4.90;102498.00;;;;9674221;30;20255;-77
2021/03/30 04:08:52;;;;;;;31.93;17.17;;;;;4.80;102490.00;;;;9674452;30;20215;-77
2021/03/30 04:13:57;;;;;;;35.27;18.97;;;;;4.70;102502.00;;;;9688981;30;20221;-77
2021/03/30 04:18:58;;;;;;;30.47;17.57;;;;;4.70;102495.00;;;;9659079;30;20219;-75
2021/03/30 04:24:01;;;;;;;36.20;17.23;;;;;4.60;102493.00;;;;9688131;30;20294;-76
2021/03/30 04:29:03;;;;;;;29.70;15.80;;;;;4.50;102494.00;;;;9695058;30;20274;-76
2021/03/30 04:34:05;;;;;;;36.10;17.50;;;;;4.50;102502.00;;;;9709872;30;20273;-77
2021/03/30 04:39:06;;;;;;;32.33;17.17;;;;;4.50;102508.00;;;;9694283;30;20210;-75
2021/03/30 04:44:08;;;;;;;32.37;17.47;;;;;4.40;102504.00;;;;9693528;30;20708;-75
2021/03/30 04:49:09;;;;;;;29.17;15.73;;;;;4.40;102511.00;;;;9707868;30;20215;-76
2021/03/30 04:54:10;;;;;;;34.90;17.27;;;;;4.30;102510.00;;;;9694745;30;20290;-76
2021/03/30 04:59:12;;;;;;;35.03;15.93;;;;;4.30;102511.00;;;;9693466;30;20210;-76
2021/03/30 05:04:13;;;;;;;30.67;16.37;;;;;4.30;102503.00;;;;9664507;30;20239;-76
2021/03/30 05:09:15;;;;;;;31.57;16.93;;;;;4.30;102509.00;;;;9692886;30;20207;-76
2021/03/30 05:14:16;;;;;;;35.83;17.80;;;;;4.30;102515.00;;;;9692540;30;20810;-76
2021/03/30 05:19:18;;;;;;;35.57;18.50;;;;;4.30;102527.00;;;;9692910;30;20203;-76
2021/03/30 05:24:19;;;;;;;33.53;18.50;;;;;4.30;102527.00;;;;9677808;30;20651;-76
2021/03/30 05:29:20;;;;;;;35.47;18.57;;;;;4.30;102527.00;;;;9692428;30;20239;-76
2021/03/30 05:34:21;;;;;;;32.43;17.20;;;;;4.40;102540.00;;;;9706465;30;20216;-75
2021/03/30 05:39:23;;;;;;;36.23;18.20;;;;;4.50;102538.00;;;;9662204;30;20668;-76
2021/03/30 05:44:26;;;;;;;37.37;18.97;;;;;4.70;102540.00;;;;9691826;30;20235;-76
2021/03/30 05:49:27;;;;;;;34.17;18.00;;;;;4.90;102541.00;;;;9720086;30;20239;-76
2021/03/30 05:54:30;;;;;;;32.40;17.80;;;;;5.10;102550.00;;;;9655869;30;20212;-76
2021/03/30 05:59:41;;;;;;;41.07;20.33;;;;;5.40;102549.00;;;;9669438;30;20635;-76
2021/03/30 06:04:43;;;;;;;37.03;19.60;;;;;5.80;102551.00;;;;9703190;30;20235;-76
2021/03/30 06:09:46;;;;;;;28.97;16.83;;;;;6.30;102571.00;;;;9690553;30;20221;-76
2021/03/30 06:14:48;;;;;;;28.77;16.50;;;;;6.70;102565.00;;;;9690652;30;20282;-76
2021/03/30 06:19:54;;;;;;;30.07;15.80;;;;;7.00;102561.00;;;;9690891;30;20212;-76
2021/03/30 06:24:56;;;;;;;30.93;17.87;;;;;7.30;102566.00;;;;9690360;30;20246;-76
2021/03/30 06:29:59;;;;;;;29.63;17.80;;;;;7.60;102567.00;;;;9637306;30;20585;-76
2021/03/30 06:35:11;;;;;;;35.13;17.07;;;;;7.90;102565.00;;;;9642426;30;20259;-76
2021/03/30 06:40:39;;;;;;;30.83;18.47;;;;;8.40;102563.00;;;;9692780;30;20742;-77
2021/03/30 06:45:41;;;;;;;26.20;13.60;;;;;9.10;102568.00;;;;9678691;30;20282;-77
2021/03/30 06:50:42;;;;;;;24.13;15.13;;;;;9.80;102572.00;;;;9673582;30;20304;-77
2021/03/30 06:55:51;;;;;;;23.03;12.70;;;;;10.50;102565.00;;;;9687543;30;20212;-77
2021/03/30 07:00:52;;;;;;;22.53;13.90;;;;;11.20;102577.00;;;;9653296;30;20243;-77
2021/03/30 07:05:54;;;;;;;22.10;14.73;;;;;11.80;102573.00;;;;9663822;30;20657;-77
2021/03/30 07:10:55;;;;;;;22.50;15.57;;;;;12.30;102578.00;;;;9652085;30;20219;-77
2021/03/30 07:16:04;;;;;;;19.70;13.17;;;;;12.90;102572.00;;;;9686027;30;20265;-77
2021/03/30 07:21:22;;;;;;;24.67;14.67;;;;;13.00;102577.00;;;;9692347;30;20222;-76
2021/03/30 07:26:29;;;;;;;24.87;14.87;;;;;13.40;102574.00;;;;9681117;30;20237;-77
2021/03/30 07:31:40;;;;;;;26.33;14.60;;;;;13.80;102569.00;;;;9665621;30;20216;-77
2021/03/30 07:37:01;;;;;;;23.47;14.47;;;;;14.00;102570.00;;;;9693841;30;20222;-77
2021/03/30 07:42:04;;;;;;;26.33;14.93;;;;;14.30;102579.00;;;;9676424;30;20211;-77
2021/03/30 07:47:05;;;;;;;23.27;14.57;;;;;14.70;102589.00;;;;9698414;30;20452;-77
2021/03/30 07:52:22;;;;;;;22.80;14.27;;;;;15.20;102585.00;;;;9644793;30;20270;-77
2021/03/30 07:57:56;;;;;;;23.60;15.07;;;;;15.70;102590.00;;;;9662159;30;20220;-77
2021/03/30 08:03:23;;;;;;;20.77;14.27;;;;;16.10;102590.00;;;;9684050;30;20217;-77
2021/03/30 08:08:49;;;;;;;22.03;14.40;;;;;16.50;102591.00;;;;9665503;30;20215;-77
2021/03/30 08:13:54;;;;;;;21.47;14.93;;;;;16.80;102595.00;;;;9700641;30;20251;-77
2021/03/30 08:18:58;;;;;;;22.77;14.83;;;;;17.20;102595.00;;;;9686516;30;20223;-77
2021/03/30 08:24:02;;;;;;;21.97;12.80;;;;;17.50;102592.00;;;;9685879;30;20709;-75
2021/03/30 08:29:17;;;;;;;19.95;14.13;;;;;18.00;102592.00;;;;9675015;30;20266;-76
2021/03/30 08:34:26;;;;;;;20.95;13.07;;;;;18.60;102594.00;;;;9676406;30;20565;-76
2021/03/30 08:39:28;;;;;;;19.58;12.88;;;;;18.80;102591.00;;;;9705626;30;20744;-76
2021/03/30 08:44:56;;;;;;;21.10;13.45;;;;;18.90;102594.00;;;;9682893;30;20220;-76
2021/03/30 08:50:11;;;;;;;18.85;12.25;;;;;18.80;102598.00;;;;9683447;30;20238;-76
2021/03/30 08:55:13;;;;;;;19.77;12.13;;;;;18.90;102603.00;;;;9676653;30;20215;-77
2021/03/30 09:00:15;;;;;;;21.73;12.48;;;;;19.10;102601.00;;;;9684364;30;20278;-76
2021/03/30 09:05:19;;;;;;;20.33;11.40;;;;;19.20;102607.00;;;;9675347;30;20208;-76
2021/03/30 09:10:21;;;;;;;16.42;10.45;;;;;19.50;102614.00;;;;9678919;30;20200;-76
2021/03/30 09:15:22;;;;;;;15.50;10.68;;;;;19.80;102612.00;;;;9697149;30;20275;-76
2021/03/30 09:20:34;;;;;;;17.40;11.35;;;;;20.10;102611.00;;;;9698808;30;20231;-76
2021/03/30 09:25:42;;;;;;;14.40;9.93;;;;;20.80;102610.00;;;;9705539;30;20266;-76
2021/03/30 09:30:45;;;;;;;15.30;10.32;;;;;21.20;102615.00;;;;9692196;30;20211;-76
2021/03/30 09:35:47;;;;;;;14.95;10.10;;;;;21.20;102612.00;;;;9650781;30;20223;-77
2021/03/30 09:40:49;;;;;;;17.08;10.13;;;;;21.60;102602.00;;;;9670132;30;20207;-76
2021/03/30 09:45:51;;;;;;;16.02;11.15;;;;;21.90;102608.00;;;;9698374;30;20216;-76
2021/03/30 09:50:52;;;;;;;17.52;10.98;;;;;22.40;102603.00;;;;9675856;30;20216;-76
2021/03/30 09:56:02;;;;;;;22.90;10.80;;;;;22.40;102603.00;;;;9686988;30;20242;-76
2021/03/30 10:01:04;;;;;;;15.90;10.20;;;;;22.20;102597.00;;;;9691387;30;20266;-76
2021/03/30 10:06:21;;;;;;;17.38;11.40;;;;;22.90;102590.00;;;;9679656;30;20277;-76
2021/03/30 10:11:26;;;;;;;19.85;10.20;;;;;23.30;102587.00;;;;9679067;30;20220;-76
2021/03/30 10:16:28;;;;;;;14.32;9.68;;;;;23.80;102579.00;;;;9667583;30;20209;-76
2021/03/30 10:21:36;;;;;;;15.02;9.82;;;;;24.40;102573.00;;;;9698580;30;20203;-76
2021/03/30 10:26:37;;;;;;;13.88;9.02;;;;;24.40;102569.00;;;;9676278;30;20330;-76
2021/03/30 10:31:55;;;;;;;16.35;9.73;;;;;24.50;102565.00;;;;9680729;30;20212;-76
2021/03/30 10:36:59;;;;;;;13.90;9.25;;;;;24.90;102556.00;;;;9674480;30;20608;-76
2021/03/30 10:42:14;;;;;;;14.02;9.23;;;;;25.20;102552.00;;;;9715581;30;20203;-77
2021/03/30 10:47:18;;;;;;;12.57;9.48;;;;;25.30;102543.00;;;;9685804;30;20246;-76
2021/03/30 10:52:43;;;;;;;15.73;9.75;;;;;25.20;102535.00;;;;9699118;30;20210;-76
2021/03/30 10:57:48;;;;;;;12.07;8.23;;;;;25.30;102529.00;;;;9693919;30;20216;-76
2021/03/30 11:02:49;;;;;;;13.25;8.45;;;;;25.90;102524.00;;;;9682602;30;20212;-76
2021/03/30 11:07:52;;;;;;;12.73;8.32;;;;;26.00;102522.00;;;;9691023;30;20200;-76
2021/03/30 11:12:54;;;;;;;11.13;7.10;;;;;26.00;102522.00;;;;9680003;30;20215;-76
2021/03/30 11:17:56;;;;;;;11.65;6.78;;;;;25.90;102509.00;;;;9688670;30;20605;-76
2021/03/30 11:22:57;;;;;;;8.98;6.47;;;;;26.00;102508.00;;;;9683280;30;20580;-76
2021/03/30 11:28:04;;;;;;;10.45;6.30;;;;;26.10;102504.00;;;;9687899;30;20227;-76
2021/03/30 11:38:09;;;;;;;8.43;5.50;;;;;26.40;102486.00;;;;9669601;30;20211;-76
2021/03/30 11:43:11;;;;;;;8.60;5.75;;;;;26.60;102485.00;;;;9659177;30;20216;-76
2021/03/30 11:48:13;;;;;;;8.98;6.13;;;;;26.80;102479.00;;;;9688711;30;20723;-78
2021/03/30 11:53:14;;;;;;;9.38;5.45;;;;;26.90;102483.00;;;;9676737;30;20235;-76
2021/03/30 11:58:15;;;;;;;13.27;6.10;;;;;27.00;102483.00;;;;9683560;30;20278;-76
2021/03/30 12:03:16;;;;;;;10.48;5.95;;;;;27.00;102477.00;;;;9666813;30;20274;-77
2021/03/30 12:08:18;;;;;;;8.07;5.60;;;;;27.20;102476.00;;;;9680478;30;20232;-76
2021/03/30 12:13:20;;;;;;;10.00;5.90;;;;;26.90;102463.00;;;;9684173;30;20847;-74
2021/03/30 12:18:22;;;;;;;18.38;13.80;;;;;27.10;102460.00;;;;9694099;30;20211;-77
2021/03/30 12:23:23;;;;;;;12.05;5.50;;;;;27.20;102453.00;;;;9675000;30;20294;-77
2021/03/30 12:28:25;;;;;;;6.18;4.65;;;;;27.40;102442.00;;;;9703716;30;20266;-77
2021/03/30 12:33:26;;;;;;;5.88;4.57;;;;;27.30;102441.00;;;;9671534;30;20212;-76
2021/03/30 12:38:28;;;;;;;7.22;4.22;;;;;27.70;102426.00;;;;9665940;30;20275;-77
2021/03/30 12:43:29;;;;;;;7.90;4.47;;;;;28.00;102428.00;;;;9682600;30;20764;-76
2021/03/30 12:48:30;;;;;;;5.53;3.55;;;;;28.10;102414.00;;;;9688439;30;20618;-76
2021/03/30 12:53:32;;;;;;;4.63;3.58;;;;;28.30;102409.00;;;;9684877;30;20210;-76
2021/03/30 12:58:34;;;;;;;9.27;4.50;;;;;28.20;102404.00;;;;9677528;30;20267;-76
2021/03/30 13:03:35;;;;;;;7.82;4.93;;;;;28.00;102404.00;;;;9683419;30;20662;-75
2021/03/30 13:08:37;;;;;;;5.68;4.18;;;;;28.10;102393.00;;;;9689091;30;20230;-76
2021/03/30 13:13:38;;;;;;;7.93;3.67;;;;;28.10;102390.00;;;;9679689;30;20211;-76
2021/03/30 13:18:40;;;;;;;5.68;3.47;;;;;28.20;102375.00;;;;9693422;30;20199;-76
2021/03/30 13:24:05;;;;;;;9.32;4.00;;;;;28.40;102370.00;;;;9664560;30;20210;-76
2021/03/30 13:29:06;;;;;;;6.40;3.70;;;;;28.20;102357.00;;;;9676988;30;20299;-76
2021/03/30 13:34:08;;;;;;;6.00;3.60;;;;;28.30;102347.00;;;;9675731;30;20220;-76
2021/03/30 13:39:22;;;;;;;6.43;3.08;;;;;28.40;102347.00;;;;9678144;30;20211;-76
2021/03/30 13:44:25;;;;;;;5.20;3.72;;;;;28.80;102342.00;;;;9668859;30;20200;-76
2021/03/30 13:49:29;;;;;;;5.50;3.25;;;;;29.20;102335.00;;;;9671184;30;20215;-75
2021/03/30 13:54:30;;;;;;;5.57;3.50;;;;;29.40;102329.00;;;;9684354;30;20220;-75
2021/03/30 13:59:32;;;;;;;5.53;3.92;;;;;30.30;102323.00;;;;9700467;30;20199;-76
2021/03/30 14:04:33;;;;;;;5.70;2.90;;;;;31.90;102306.00;;;;9688957;30;20331;-76
2021/03/30 14:09:35;;;;;;;6.03;3.60;;;;;33.20;102308.00;;;;9678386;30;20214;-76
2021/03/30 14:14:46;;;;;;;5.20;4.40;;;;;33.60;102306.00;;;;9682308;30;20270;-75
2021/03/30 14:19:50;;;;;;;5.68;4.60;;;;;34.50;102296.00;;;;9699977;30;20215;-76
2021/03/30 14:24:59;;;;;;;6.00;4.63;;;;;35.10;102283.00;;;;9667202;30;20236;-75
2021/03/30 14:30:04;;;;;;;7.38;4.22;;;;;35.40;102281.00;;;;9669385;30;20286;-76
2021/03/30 14:35:06;;;;;;;5.35;4.22;;;;;35.90;102276.00;;;;9671716;30;20257;-77
2021/03/30 14:40:23;;;;;;;4.72;4.10;;;;;36.20;102270.00;;;;9678681;30;20220;-76
2021/03/30 14:56:17;;;;;;;6.07;4.40;;;;;36.30;102228.00;;;;9674585;30;20309;-76
2021/03/30 15:06:42;;;;;;;7.45;4.82;;;;;36.60;102223.00;;;;9689699;30;20200;-76
2021/03/30 15:11:44;;;;;;;8.63;4.43;;;;;35.10;102224.00;;;;9664205;30;20302;-75
2021/03/30 15:16:45;;;;;;;11.18;4.63;;;;;35.10;102200.00;;;;9676788;30;20219;-76
2021/03/30 15:21:47;;;;;;;5.65;4.30;;;;;35.20;102207.00;;;;9679763;30;20215;-76
2021/03/30 15:26:48;;;;;;;6.10;4.45;;;;;32.80;102218.00;;;;9679596;30;20231;-76
2021/03/30 15:31:49;;;;;;;5.93;4.60;;;;;30.70;102211.00;;;;9670379;30;20197;-76
2021/03/30 15:36:51;;;;;;;5.57;4.13;;;;;30.40;102212.00;;;;9692404;30;20216;-76
2021/03/30 15:41:52;;;;;;;6.90;3.92;;;;;29.90;102218.00;;;;9682655;30;20215;-77
2021/03/30 15:52:15;;;;;;;7.63;4.47;;;;;29.00;102191.00;;;;9677390;30;20222;-76
2021/03/30 15:57:16;;;;;;;7.35;4.90;;;;;28.00;102186.00;;;;9661885;30;20224;-77
2021/03/30 16:02:18;;;;;;;7.53;3.90;;;;;26.30;102186.00;;;;9674245;30;20238;-77
2021/03/30 16:07:20;;;;;;;7.75;4.35;;;;;25.80;102185.00;;;;9702601;30;20559;-77
2021/03/30 16:12:22;;;;;;;6.82;3.92;;;;;26.00;102179.00;;;;9669359;30;20204;-76
2021/03/30 16:17:23;;;;;;;6.57;3.95;;;;;25.20;102177.00;;;;9674211;30;20244;-76
2021/03/30 16:22:25;;;;;;;10.55;4.03;;;;;24.70;102175.00;;;;9670849;30;20218;-76
2021/03/30 16:27:26;;;;;;;7.18;3.42;;;;;24.60;102168.00;;;;9690664;30;20331;-76
2021/03/30 16:32:28;;;;;;;5.72;3.60;;;;;24.10;102170.00;;;;9651623;30;20766;-76
2021/03/30 16:37:29;;;;;;;6.97;4.15;;;;;23.70;102158.00;;;;9673605;30;20220;-76
2021/03/30 16:42:31;;;;;;;6.97;3.75;;;;;23.50;102155.00;;;;9669743;30;20215;-76
2021/03/30 16:47:32;;;;;;;3.60;2.97;;;;;23.30;102153.00;;;;9681340;30;20208;-76
2021/03/30 16:52:34;;;;;;;4.97;3.30;;;;;23.00;102146.00;;;;9698571;30;20214;-76
2021/03/30 16:57:35;;;;;;;7.32;3.20;;;;;22.80;102154.00;;;;9685592;30;20234;-76
2021/03/30 17:02:38;;;;;;;6.55;4.15;;;;;22.60;102139.00;;;;9690384;30;20216;-76
2021/03/30 17:07:39;;;;;;;3.83;3.22;;;;;22.40;102142.00;;;;9657211;30;20267;-76
2021/03/30 17:12:41;;;;;;;5.15;3.13;;;;;22.30;102141.00;;;;9696452;30;20206;-76
2021/03/30 17:17:42;;;;;;;5.30;3.47;;;;;22.00;102136.00;;;;9690692;30;20224;-77
2021/03/30 17:22:44;;;;;;;9.68;4.00;;;;;21.80;102133.00;;;;9696289;30;20200;-76
2021/03/30 17:27:45;;;;;;;7.75;3.42;;;;;21.50;102132.00;;;;9687083;30;20223;-77
2021/03/30 17:32:48;;;;;;;5.63;3.10;;;;;21.40;102132.00;;;;9661931;30;20216;-76
2021/03/30 17:37:50;;;;;;;12.00;3.38;;;;;21.20;102133.00;;;;9656102;30;20239;-77
2021/03/30 17:42:54;;;;;;;325.20;154.35;;;;;21.00;102136.00;;;;9675886;30;20760;-77
2021/03/30 17:47:55;;;;;;;247.80;193.20;;;;;20.70;102128.00;;;;9694408;30;20680;-76
2021/03/30 17:52:57;;;;;;;13.00;8.38;;;;;20.50;102114.00;;;;9672873;30;20227;-77
2021/03/30 17:57:58;;;;;;;13.90;8.45;;;;;20.10;102116.00;;;;9690863;30;20243;-76
2021/03/30 18:03:00;;;;;;;21.92;17.40;;;;;19.80;102118.00;;;;9683785;30;20274;-76
2021/03/30 18:08:04;;;;;;;14.10;5.18;;;;;19.50;102120.00;;;;9699533;30;20243;-76
2021/03/30 18:13:05;;;;;;;7.72;5.03;;;;;19.20;102115.00;;;;9691047;30;20266;-76
2021/03/30 18:18:06;;;;;;;34.70;26.40;;;;;18.90;102119.00;;;;9686984;30;20239;-77
2021/03/30 18:23:08;;;;;;;3.90;2.97;;;;;18.80;102111.00;;;;9683733;30;20584;-77
2021/03/30 18:28:09;;;;;;;6.65;4.72;;;;;18.50;102126.00;;;;9678385;30;20291;-77
2021/03/30 18:33:10;;;;;;;5.20;3.17;;;;;18.20;102121.00;;;;9681126;30;20223;-77
2021/03/30 18:38:12;;;;;;;12.70;7.13;;;;;17.90;102131.00;;;;9674570;30;20251;-77
2021/03/30 18:43:13;;;;;;;334.30;171.82;;;;;17.70;102115.00;;;;9670053;30;20829;-77
2021/03/30 18:48:15;;;;;;;87.63;66.03;;;;;17.50;102120.00;;;;9659171;30;20223;-77
2021/03/30 18:53:17;;;;;;;32.73;20.17;;;;;17.30;102111.00;;;;9686439;30;20618;-77
2021/03/30 18:58:29;;;;;;;26.13;19.40;;;;;17.10;102112.00;;;;9675089;30;20235;-77
2021/03/30 19:03:30;;;;;;;16.60;12.13;;;;;16.80;102108.00;;;;9694310;30;20554;-77
2021/03/30 19:08:32;;;;;;;25.30;13.17;;;;;16.50;102128.00;;;;9660940;30;20211;-76
2021/03/30 19:13:35;;;;;;;12.67;7.23;;;;;16.20;102121.00;;;;9678431;30;20207;-76
2021/03/30 19:18:36;;;;;;;17.57;12.80;;;;;16.00;102128.00;;;;9690788;30;20594;-76
2021/03/30 19:23:39;;;;;;;12.43;6.87;;;;;15.80;102118.00;;;;9662522;30;20214;-76
2021/03/30 19:28:41;;;;;;;11.87;6.57;;;;;15.60;102115.00;;;;9655563;30;20232;-76
2021/03/30 19:33:48;;;;;;;31.37;19.40;;;;;15.50;102111.00;;;;9697936;30;20239;-76
2021/03/30 19:38:50;;;;;;;18.20;7.70;;;;;15.30;102111.00;;;;9682804;30;20262;-76
2021/03/30 19:43:52;;;;;;;14.33;6.77;;;;;15.20;102102.00;;;;9699513;30;20222;-76
2021/03/30 19:48:53;;;;;;;11.53;6.27;;;;;15.00;102097.00;;;;9673264;30;20237;-76
2021/03/30 19:53:56;;;;;;;9.37;4.73;;;;;14.80;102093.00;;;;9699160;30;20747;-76
2021/03/30 19:58:57;;;;;;;14.60;6.73;;;;;14.70;102095.00;;;;9702198;30;20219;-76
2021/03/30 20:03:59;;;;;;;61.90;33.13;;;;;14.50;102095.00;;;;9687811;30;20258;-76
2021/03/30 20:09:03;;;;;;;13.77;8.27;;;;;14.30;102096.00;;;;9713056;30;20303;-76
2021/03/30 20:14:05;;;;;;;9.90;6.40;;;;;14.20;102099.00;;;;9695770;30;20199;-76
2021/03/30 20:19:07;;;;;;;7.30;4.57;;;;;14.00;102092.00;;;;9679359;30;20916;-76
2021/03/30 20:24:08;;;;;;;10.57;5.90;;;;;13.90;102087.00;;;;9694387;30;20688;-76
2021/03/30 20:29:10;;;;;;;11.33;7.13;;;;;13.60;102089.00;;;;9675519;30;20585;-76
2021/03/30 20:34:31;;;;;;;12.37;6.50;;;;;13.50;102078.00;;;;9673247;30;20318;-76
2021/03/30 20:39:32;;;;;;;12.23;7.20;;;;;13.30;102075.00;;;;9672992;30;20224;-76
2021/03/30 20:44:36;;;;;;;13.40;7.83;;;;;13.30;102078.00;;;;9660373;30;20216;-76
2021/03/30 20:49:38;;;;;;;11.40;6.20;;;;;13.20;102066.00;;;;9673059;30;20216;-76
2021/03/30 20:54:40;;;;;;;10.23;7.63;;;;;13.10;102068.00;;;;9680159;30;20901;-76
2021/03/30 20:59:41;;;;;;;13.57;6.40;;;;;13.00;102063.00;;;;9682553;30;20267;-76
2021/03/30 21:04:43;;;;;;;11.73;6.93;;;;;12.80;102061.00;;;;9668511;30;20278;-77
2021/03/30 21:09:45;;;;;;;10.93;6.27;;;;;12.60;102055.00;;;;9669517;30;20212;-77
2021/03/30 21:14:46;;;;;;;19.67;10.33;;;;;12.50;102062.00;;;;9686527;30;20223;-77
2021/03/30 21:19:47;;;;;;;14.83;9.10;;;;;12.40;102055.00;;;;9687411;30;20212;-77
2021/03/30 21:24:49;;;;;;;13.27;7.53;;;;;12.30;102052.00;;;;9691014;30;20235;-77
2021/03/30 21:29:50;;;;;;;13.63;9.13;;;;;12.20;102055.00;;;;9677798;30;20200;-77
2021/03/30 21:34:51;;;;;;;14.93;9.50;;;;;12.10;102054.00;;;;9706577;30;20281;-77
2021/03/30 21:39:53;;;;;;;12.80;8.20;;;;;12.00;102041.00;;;;9676310;30;20211;-76
2021/03/30 21:44:55;;;;;;;13.47;7.73;;;;;11.90;102029.00;;;;9692212;30;20636;-76
2021/03/30 21:49:56;;;;;;;11.27;7.23;;;;;11.80;102035.00;;;;9671220;30;20274;-76
2021/03/30 21:54:57;;;;;;;13.00;7.10;;;;;11.70;102035.00;;;;9676746;30;20231;-76
2021/03/30 21:59:59;;;;;;;14.93;7.63;;;;;11.60;102028.00;;;;9691126;30;20215;-77
2021/03/30 22:05:00;;;;;;;12.23;7.00;;;;;11.50;102019.00;;;;9680474;30;20216;-76
2021/03/30 22:10:38;;;;;;;10.40;7.33;;;;;11.40;102023.00;;;;9702552;30;20549;-77
2021/03/30 22:15:40;;;;;;;14.57;7.30;;;;;11.30;102016.00;;;;9689523;30;20232;-76
2021/03/30 22:20:48;;;;;;;11.17;7.20;;;;;11.20;102013.00;;;;9688852;30;20685;-76
2021/03/30 22:25:53;;;;;;;13.10;7.87;;;;;11.20;102010.00;;;;9703978;30;20781;-77
2021/03/30 22:30:57;;;;;;;9.83;6.70;;;;;11.00;102002.00;;;;9689522;30;20240;-76
2021/03/30 22:35:59;;;;;;;12.03;6.90;;;;;10.90;101996.00;;;;9689752;30;20236;-76
2021/03/30 22:41:02;;;;;;;10.27;6.83;;;;;10.80;101987.00;;;;9689350;30;20215;-76
2021/03/30 22:46:03;;;;;;;16.57;7.83;;;;;10.70;101981.00;;;;9688200;30;20751;-76
2021/03/30 22:51:05;;;;;;;14.80;7.60;;;;;10.60;101979.00;;;;9659816;30;20212;-76
2021/03/30 22:56:07;;;;;;;12.97;7.80;;;;;10.50;101978.00;;;;9667729;30;20240;-76
2021/03/30 23:01:08;;;;;;;8.93;7.50;;;;;10.50;101980.00;;;;9678066;30;20234;-76
2021/03/30 23:06:10;;;;;;;11.13;7.53;;;;;10.50;101981.00;;;;9668010;30;20228;-76
2021/03/30 23:11:11;;;;;;;12.47;8.37;;;;;10.40;101988.00;;;;9674220;30;20223;-76
2021/03/30 23:16:12;;;;;;;10.83;7.70;;;;;10.30;101990.00;;;;9681712;30;20633;-76
2021/03/30 23:21:14;;;;;;;13.70;7.63;;;;;10.30;101980.00;;;;9667669;30;20228;-76
2021/03/30 23:26:15;;;;;;;10.93;7.87;;;;;10.10;101981.00;;;;9639487;30;20303;-76
2021/03/30 23:31:16;;;;;;;11.27;8.07;;;;;10.00;101988.00;;;;9674358;30;20219;-76
2021/03/30 23:36:18;;;;;;;11.73;8.40;;;;;9.90;101979.00;;;;9688452;30;20271;-76
2021/03/30 23:41:19;;;;;;;15.20;8.47;;;;;9.80;101974.00;;;;9689469;30;20215;-76
2021/03/30 23:46:20;;;;;;;11.83;8.73;;;;;9.80;101963.00;;;;9702797;30;20660;-76
2021/03/30 23:51:22;;;;;;;13.10;8.30;;;;;9.70;101958.00;;;;9702745;30;20214;-76
2021/03/30 23:56:23;;;;;;;12.30;8.50;;;;;9.70;101959.00;;;;9702508;30;20323;-76
